Time;durP1;ratioP1;P1;durP2;ratioP2;P2;SDS_P1;SDS_P2;PMS_P1;PMS_P2;Temp;Humidity;BMP_temperature;BMP_pressure;BME280_temperature;BME280_humidity;BME280_pressure;Samples;Min_cycle;Max_cycle;Signal;HPM_P1;HPM_P2
2021/08/04 00:02:09;;;;;;;3.70;1.67;;;;;;;11.92;48.56;95240.59;5033186;28;20490;-71
2021/08/04 00:04:35;;;;;;;2.13;1.70;;;;;;;11.87;48.52;95238.53;4999075;28;20066;-71
2021/08/04 00:07:00;;;;;;;2.58;1.80;;;;;;;11.79;48.46;95234.16;4996001;28;20915;-70
2021/08/04 00:09:25;;;;;;;3.38;2.00;;;;;;;11.79;48.60;95238.69;4995702;28;20096;-70
2021/08/04 00:11:51;;;;;;;3.42;1.90;;;;;;;11.77;48.58;95242.34;4997160;28;20046;-71
2021/08/04 00:14:16;;;;;;;3.28;2.10;;;;;;;11.67;48.77;95247.22;4982849;28;20084;-70
2021/08/04 00:16:42;;;;;;;3.25;2.00;;;;;;;11.67;48.71;95239.22;4986887;28;20037;-70
2021/08/04 00:19:07;;;;;;;2.75;1.90;;;;;;;11.74;48.76;95242.75;4986160;28;20048;-70
2021/08/04 00:21:32;;;;;;;2.45;2.25;;;;;;;11.76;49.50;95239.88;5005453;28;20030;-70
2021/08/04 00:23:58;;;;;;;2.20;1.85;;;;;;;11.93;49.08;95242.25;4996714;28;20030;-70
2021/08/04 00:26:23;;;;;;;4.25;2.10;;;;;;;12.06;49.17;95249.50;4984559;28;20171;-71
2021/08/04 00:28:49;;;;;;;9.27;2.35;;;;;;;12.12;49.31;95238.91;4999366;28;20791;-72
2021/08/04 00:31:14;;;;;;;33.97;2.90;;;;;;;12.25;49.55;95245.31;5001117;28;20095;-71
2021/08/04 00:33:40;;;;;;;47.38;3.95;;;;;;;12.36;50.21;95243.94;4985105;28;20121;-71
2021/08/04 00:36:05;;;;;;;160.50;6.05;;;;;;;12.47;51.28;95239.84;4981979;28;20603;-71
2021/08/04 00:38:31;;;;;;;116.25;5.68;;;;;;;12.51;50.93;95241.13;4984577;28;20038;-71
2021/08/04 00:40:56;;;;;;;211.43;6.97;;;;;;;12.56;52.07;95241.34;4997000;28;20046;-71
2021/08/04 00:43:22;;;;;;;151.52;6.25;;;;;;;12.59;51.94;95248.97;5001948;28;20102;-71
2021/08/04 00:45:47;;;;;;;59.92;4.93;;;;;;;12.68;51.20;95249.59;4996053;28;20042;-71
2021/08/04 00:48:12;;;;;;;20.02;3.28;;;;;;;12.76;50.56;95248.59;4987853;28;20690;-71
2021/08/04 00:50:38;;;;;;;5.30;3.50;;;;;;;12.79;49.93;95245.53;4990109;28;20082;-71
2021/08/04 00:53:26;;;;;;;10.35;3.38;;;;;;;12.76;49.68;95244.09;4985747;28;20038;-71
2021/08/04 00:55:52;;;;;;;5.63;3.75;;;;;;;12.82;49.48;95244.31;4986696;28;20121;-71
2021/08/04 00:58:19;;;;;;;8.68;4.22;;;;;;;12.86;49.59;95249.06;4985223;28;20122;-71
2021/08/04 01:00:57;;;;;;;9.63;4.22;;;;;;;12.89;49.64;95248.63;4986966;28;20039;-71
2021/08/04 01:03:22;;;;;;;14.98;4.85;;;;;;;12.90;49.68;95249.47;4970470;28;20151;-71
2021/08/04 01:05:55;;;;;;;24.55;5.15;;;;;;;12.94;49.12;95242.69;4974584;28;20166;-72
2021/08/04 01:08:42;;;;;;;16.15;5.80;;;;;;;12.93;49.37;95249.88;4971631;28;20084;-72
2021/08/04 01:11:08;;;;;;;12.88;5.40;;;;;;;12.97;49.46;95254.81;4963262;28;20066;-71
2021/08/04 01:13:41;;;;;;;37.55;5.38;;;;;;;13.12;48.93;95249.34;5009780;28;20418;-71
2021/08/04 01:16:12;;;;;;;64.72;5.88;;;;;;;13.03;49.05;95243.34;4974117;28;20118;-71
2021/08/04 01:18:44;;;;;;;46.42;6.32;;;;;;;13.02;48.88;95247.88;4987612;28;20033;-71
2021/08/04 01:21:09;;;;;;;50.47;6.15;;;;;;;12.99;49.15;95247.44;4998269;28;20035;-71
2021/08/04 01:23:50;;;;;;;50.00;6.10;;;;;;;12.84;49.11;95252.94;4998868;28;20037;-71
2021/08/04 01:26:35;;;;;;;42.08;5.47;;;;;;;12.83;49.48;95252.13;5042020;28;20472;-72
2021/08/04 01:29:01;;;;;;;60.97;5.88;;;;;;;12.94;49.05;95250.69;4998884;28;20403;-71
2021/08/04 01:31:29;;;;;;;48.97;5.70;;;;;;;12.94;49.17;95253.38;5002627;28;20038;-71
2021/08/04 01:33:55;;;;;;;7.88;4.85;;;;;;;12.91;49.32;95251.94;4995549;28;20434;-71
2021/08/04 01:36:20;;;;;;;13.85;4.82;;;;;;;12.96;49.41;95250.50;5002657;28;20033;-71
2021/08/04 01:38:46;;;;;;;10.00;5.25;;;;;;;13.00;49.44;95241.09;4982262;28;20030;-71
2021/08/04 01:41:12;;;;;;;19.10;4.32;;;;;;;13.08;49.32;95245.44;5000117;28;20034;-71
2021/08/04 01:43:38;;;;;;;5.65;4.43;;;;;;;13.12;49.26;95236.78;4991037;28;20038;-71
2021/08/04 01:46:03;;;;;;;10.30;4.70;;;;;;;13.15;49.03;95239.06;5008054;28;20026;-71
2021/08/04 01:48:29;;;;;;;7.80;4.60;;;;;;;13.23;49.38;95237.22;5007589;28;20148;-71
2021/08/04 01:51:00;;;;;;;16.25;5.10;;;;;;;13.33;49.17;95239.50;5006640;28;20078;-71
2021/08/04 01:53:26;;;;;;;6.95;4.60;;;;;;;13.34;49.20;95238.44;5004508;28;20105;-71
2021/08/04 01:55:51;;;;;;;6.57;4.70;;;;;;;13.40;48.70;95234.97;4988867;28;20467;-73
2021/08/04 01:58:16;;;;;;;7.03;5.38;;;;;;;13.42;48.94;95236.41;5004386;28;20102;-72
2021/08/04 02:00:42;;;;;;;8.35;4.97;;;;;;;13.39;48.90;95234.13;5006627;28;20114;-72
2021/08/04 02:03:07;;;;;;;9.88;5.05;;;;;;;13.42;49.24;95231.06;5003925;28;20510;-71
2021/08/04 02:05:33;;;;;;;9.60;5.00;;;;;;;13.50;49.03;95231.88;5007853;28;20075;-71
2021/08/04 02:07:58;;;;;;;8.55;4.57;;;;;;;13.51;49.08;95230.84;5003305;28;20117;-71
2021/08/04 02:10:57;;;;;;;8.77;5.57;;;;;;;13.46;49.55;95231.47;5005277;28;20614;-71
2021/08/04 02:13:30;;;;;;;8.35;5.57;;;;;;;13.61;48.78;95222.41;4979386;28;20202;-71
2021/08/04 02:16:17;;;;;;;8.52;5.57;;;;;;;13.60;48.55;95226.13;5019130;28;20514;-72
2021/08/04 02:18:46;;;;;;;7.53;5.00;;;;;;;13.64;48.39;95222.00;5000131;28;20070;-72
2021/08/04 02:21:12;;;;;;;8.25;5.45;;;;;;;13.63;48.38;95218.50;5003024;28;20115;-72
2021/08/04 02:23:37;;;;;;;11.93;7.30;;;;;;;13.60;48.54;95218.09;4985833;28;20496;-72
2021/08/04 02:26:11;;;;;;;11.63;7.22;;;;;;;13.58;48.86;95223.66;4981083;28;20087;-71
2021/08/04 02:28:38;;;;;;;9.77;6.05;;;;;;;13.53;48.49;95220.78;4987346;28;20112;-72
2021/08/04 02:31:03;;;;;;;10.65;6.60;;;;;;;13.43;48.64;95211.31;4997552;28;20482;-71
2021/08/04 02:33:29;;;;;;;6.47;4.57;;;;;;;13.35;48.53;95216.88;4985380;28;20086;-71
2021/08/04 02:35:54;;;;;;;11.85;7.18;;;;;;;13.03;49.19;95211.28;5006992;28;20038;-71
2021/08/04 02:38:20;;;;;;;13.13;7.18;;;;;;;12.79;49.78;95210.81;4983319;28;20036;-71
2021/08/04 02:40:46;;;;;;;8.32;6.30;;;;;;;12.84;49.30;95212.84;4997005;28;20480;-71
2021/08/04 02:43:11;;;;;;;12.75;7.30;;;;;;;12.86;48.74;95208.97;5010856;28;20117;-71
2021/08/04 02:45:37;;;;;;;12.57;6.47;;;;;;;12.86;48.82;95211.66;4967608;28;20480;-71
2021/08/04 02:48:03;;;;;;;9.75;7.25;;;;;;;12.73;49.51;95204.44;4987407;28;20060;-70
2021/08/04 02:50:28;;;;;;;12.15;7.78;;;;;;;12.67;49.33;95214.06;4968852;28;20026;-70
2021/08/04 02:52:54;;;;;;;16.38;7.38;;;;;;;12.59;49.18;95211.59;4984784;28;20038;-70
2021/08/04 02:55:19;;;;;;;22.88;7.60;;;;;;;12.53;48.95;95220.38;4967994;28;20045;-70
2021/08/04 02:57:45;;;;;;;26.05;6.80;;;;;;;12.47;49.13;95215.84;4984789;28;20031;-70
2021/08/04 03:00:10;;;;;;;18.67;6.10;;;;;;;12.39;48.84;95225.69;4985440;28;20042;-70
2021/08/04 03:02:37;;;;;;;23.42;5.97;;;;;;;12.36;49.16;95228.75;4985176;28;20030;-70
2021/08/04 03:05:03;;;;;;;83.25;6.78;;;;;;;12.03;49.70;95219.53;4985455;28;20042;-71
2021/08/04 03:07:28;;;;;;;43.50;5.88;;;;;;;11.29;52.36;95224.34;4986259;28;20031;-70
2021/08/04 03:09:54;;;;;;;264.55;7.65;;;;;;;11.64;50.83;95223.59;4981719;28;20030;-70
2021/08/04 03:12:19;;;;;;;164.18;6.43;;;;;;;11.76;50.82;95226.53;4993129;28;20034;-70
2021/08/04 03:14:46;;;;;;;254.75;8.60;;;;;;;11.42;52.25;95222.81;5004382;28;20093;-70
2021/08/04 03:17:12;;;;;;;126.50;4.35;;;;;;;11.18;53.74;95227.56;4980958;28;20084;-70
2021/08/04 03:19:37;;;;;;;23.38;4.65;;;;;;;11.38;52.37;95228.53;4980045;28;20039;-70
2021/08/04 03:22:03;;;;;;;10.45;4.68;;;;;;;11.48;51.34;95227.38;4986375;28;20034;-71
2021/08/04 03:24:28;;;;;;;22.15;4.90;;;;;;;11.50;51.17;95234.16;4981970;28;20039;-70
2021/08/04 03:26:53;;;;;;;11.20;3.35;;;;;;;11.54;50.79;95231.94;4984707;28;20037;-70
2021/08/04 03:29:19;;;;;;;17.45;4.50;;;;;;;11.56;50.67;95231.75;4978655;28;20089;-71
2021/08/04 03:31:44;;;;;;;39.30;4.50;;;;;;;11.59;50.54;95234.84;4982143;28;20088;-70
2021/08/04 03:34:10;;;;;;;17.23;5.05;;;;;;;11.64;50.63;95237.75;4977753;28;20067;-70
2021/08/04 03:36:35;;;;;;;8.98;4.90;;;;;;;11.71;50.51;95232.47;4981098;28;20358;-70
2021/08/04 03:39:01;;;;;;;5.90;4.50;;;;;;;11.76;49.71;95239.88;4977656;28;20164;-71
2021/08/04 03:41:26;;;;;;;8.10;4.60;;;;;;;11.83;49.79;95235.41;5007823;28;20800;-71
2021/08/04 03:43:51;;;;;;;21.27;5.38;;;;;;;11.87;50.04;95235.84;4990082;28;20488;-72
2021/08/04 03:46:17;;;;;;;9.52;5.10;;;;;;;11.91;50.04;95237.09;4988333;28;20091;-71
2021/08/04 03:48:42;;;;;;;5.97;3.90;;;;;;;11.99;49.81;95238.78;4987201;28;20886;-71
2021/08/04 03:51:08;;;;;;;7.10;4.80;;;;;;;12.04;49.72;95231.03;4985056;28;20447;-71
2021/08/04 03:53:33;;;;;;;10.55;4.47;;;;;;;12.09;49.96;95233.13;4983387;28;20556;-72
2021/08/04 03:55:58;;;;;;;4.95;3.78;;;;;;;12.16;49.69;95233.97;4984960;28;20783;-71
2021/08/04 03:58:24;;;;;;;5.72;4.38;;;;;;;12.19;49.57;95236.25;4980435;28;20572;-72
2021/08/04 04:00:49;;;;;;;6.35;4.05;;;;;;;12.26;49.35;95239.78;4986532;28;20315;-71
2021/08/04 04:03:15;;;;;;;7.47;4.40;;;;;;;12.34;49.12;95238.78;4975853;28;20098;-71
2021/08/04 04:05:40;;;;;;;6.05;3.88;;;;;;;12.35;48.97;95248.47;4985988;28;20101;-72
2021/08/04 04:08:05;;;;;;;7.13;4.35;;;;;;;12.45;49.22;95240.09;4984342;28;20689;-71
2021/08/04 04:10:31;;;;;;;6.25;4.97;;;;;;;12.49;48.94;95240.50;4984562;28;20185;-72
2021/08/04 04:12:56;;;;;;;5.30;4.47;;;;;;;12.56;49.05;95246.69;4996149;28;20119;-71
2021/08/04 04:15:22;;;;;;;4.95;4.20;;;;;;;12.63;49.04;95250.22;5036613;28;20857;-71
2021/08/04 04:17:47;;;;;;;5.85;4.72;;;;;;;12.67;48.65;95248.78;4979828;28;20086;-71
2021/08/04 04:20:13;;;;;;;6.18;4.40;;;;;;;12.64;48.96;95251.03;4992294;28;20152;-71
2021/08/04 04:22:43;;;;;;;5.05;4.13;;;;;;;12.67;49.05;95255.97;5004279;28;20589;-72
2021/08/04 04:25:09;;;;;;;6.07;4.53;;;;;;;12.81;48.69;95251.50;4986477;28;20473;-72
2021/08/04 04:27:35;;;;;;;7.38;4.22;;;;;;;12.86;49.20;95256.22;4973723;28;20146;-72
2021/08/04 04:30:00;;;;;;;8.32;5.18;;;;;;;12.90;48.60;95258.31;4981689;28;20106;-72
2021/08/04 04:32:26;;;;;;;5.50;4.13;;;;;;;12.94;48.56;95256.03;4975459;28;20792;-72
2021/08/04 04:34:51;;;;;;;12.75;5.65;;;;;;;13.01;48.51;95254.25;5015268;28;20083;-72
2021/08/04 04:37:16;;;;;;;13.93;7.65;;;;;;;12.94;48.93;95256.03;4977534;28;20504;-72
2021/08/04 04:39:42;;;;;;;21.65;8.43;;;;;;;12.88;49.22;95257.69;5000275;28;20110;-72
2021/08/04 04:42:07;;;;;;;10.23;6.18;;;;;;;13.00;49.30;95257.13;4998619;28;20097;-71
2021/08/04 04:44:33;;;;;;;7.47;4.68;;;;;;;13.09;49.00;95253.22;4985966;28;20121;-71
2021/08/04 04:46:58;;;;;;;9.63;5.25;;;;;;;13.17;48.87;95260.25;4983890;28;20107;-72
2021/08/04 04:49:23;;;;;;;7.22;5.10;;;;;;;13.22;48.83;95254.28;5004940;28;20098;-72
2021/08/04 04:51:49;;;;;;;8.60;4.80;;;;;;;13.32;48.81;95254.69;4995520;28;20854;-72
2021/08/04 04:54:14;;;;;;;10.20;5.85;;;;;;;13.43;48.39;95253.28;4984765;28;20072;-71
2021/08/04 04:56:40;;;;;;;7.93;5.38;;;;;;;13.49;48.39;95251.63;4969280;28;20038;-71
2021/08/04 04:59:05;;;;;;;10.07;5.80;;;;;;;13.57;48.48;95265.59;4983543;28;20106;-71
2021/08/04 05:01:31;;;;;;;11.05;5.93;;;;;;;13.70;48.49;95253.25;4955068;28;20031;-71
2021/08/04 05:03:57;;;;;;;15.00;6.30;;;;;;;13.78;48.37;95250.38;4987987;28;20124;-71
2021/08/04 05:06:22;;;;;;;10.88;6.35;;;;;;;13.88;48.16;95249.13;4988696;28;20564;-70
2021/08/04 05:08:47;;;;;;;13.93;7.00;;;;;;;13.93;47.91;95252.03;4985828;28;20054;-70
2021/08/04 05:11:13;;;;;;;13.15;7.70;;;;;;;14.02;48.14;95253.47;4987052;28;20455;-70
2021/08/04 05:13:39;;;;;;;15.05;8.98;;;;;;;14.06;47.88;95253.84;4988294;28;20105;-70
2021/08/04 05:16:05;;;;;;;17.55;8.55;;;;;;;14.22;47.62;95255.28;4986754;28;20039;-70
2021/08/04 05:18:31;;;;;;;18.83;8.20;;;;;;;14.35;47.47;95251.75;4987978;28;20205;-71
2021/08/04 05:20:56;;;;;;;17.45;10.25;;;;;;;14.54;47.46;95255.38;4985859;28;20041;-71
2021/08/04 05:23:22;;;;;;;16.20;10.38;;;;;;;14.62;47.66;95250.81;4987042;28;20038;-70
2021/08/04 05:25:47;;;;;;;17.13;10.75;;;;;;;14.74;47.63;95254.50;4984748;28;20034;-70
2021/08/04 05:28:13;;;;;;;22.05;10.55;;;;;;;14.87;47.63;95250.09;4996748;28;20037;-70
2021/08/04 05:30:38;;;;;;;17.98;10.95;;;;;;;14.97;47.15;95256.66;5005236;28;20034;-70
2021/08/04 05:33:04;;;;;;;14.65;10.23;;;;;;;15.08;46.40;95263.19;5013113;28;20042;-70
2021/08/04 05:35:29;;;;;;;11.50;7.90;;;;;;;15.13;46.31;95259.84;4983959;28;20041;-70
2021/08/04 05:37:55;;;;;;;11.95;8.88;;;;;;;15.33;46.31;95261.59;4984784;28;20026;-70
2021/08/04 05:40:20;;;;;;;14.75;9.75;;;;;;;15.43;46.49;95261.09;4980059;28;20054;-70
2021/08/04 05:42:46;;;;;;;13.52;9.25;;;;;;;15.51;46.40;95260.84;4985954;28;20049;-70
2021/08/04 05:45:11;;;;;;;11.77;8.95;;;;;;;15.67;45.21;95261.34;4985433;28;20035;-71
2021/08/04 05:47:37;;;;;;;14.27;9.63;;;;;;;15.67;45.43;95264.03;4981924;28;20038;-71
2021/08/04 05:50:03;;;;;;;10.15;7.47;;;;;;;15.60;45.05;95258.72;4988945;28;20034;-71
2021/08/04 05:52:29;;;;;;;10.77;7.88;;;;;;;15.71;45.35;95255.31;4976510;28;20474;-71
2021/08/04 05:54:55;;;;;;;12.80;8.50;;;;;;;15.83;44.72;95255.44;4988077;28;20050;-71
2021/08/04 05:57:20;;;;;;;10.63;8.13;;;;;;;15.87;44.83;95251.25;4989381;28;20460;-71
2021/08/04 05:59:46;;;;;;;13.07;9.38;;;;;;;15.38;45.03;95261.75;4986091;28;20121;-71
2021/08/04 06:02:11;;;;;;;12.95;9.90;;;;;;;15.20;45.65;95257.94;4987227;28;20030;-71
2021/08/04 06:04:37;;;;;;;14.23;10.40;;;;;;;15.17;45.21;95266.44;4987764;28;20515;-70
2021/08/04 06:07:02;;;;;;;10.20;7.90;;;;;;;15.42;45.23;95262.13;4987935;28;20404;-70
2021/08/04 06:09:30;;;;;;;12.48;9.48;;;;;;;15.77;44.67;95266.22;4985856;28;20041;-70
2021/08/04 06:11:55;;;;;;;12.63;9.38;;;;;;;15.82;43.76;95264.53;4981853;28;20188;-70
2021/08/04 06:14:20;;;;;;;12.88;10.00;;;;;;;15.66;44.40;95263.22;5004217;28;20042;-71
2021/08/04 06:16:46;;;;;;;13.95;10.60;;;;;;;15.89;44.27;95272.50;4992211;28;20030;-71
2021/08/04 06:19:11;;;;;;;15.05;10.73;;;;;;;15.60;44.83;95264.06;4983712;28;20057;-70
2021/08/04 06:21:37;;;;;;;13.77;10.15;;;;;;;15.59;44.77;95267.81;5023164;28;20553;-72
2021/08/04 06:24:02;;;;;;;18.88;13.27;;;;;;;15.41;45.82;95273.91;4993171;28;20045;-71
2021/08/04 06:26:28;;;;;;;18.10;13.07;;;;;;;14.08;48.84;95282.06;4982536;28;20030;-71
2021/08/04 06:28:53;;;;;;;12.57;9.13;;;;;;;14.76;47.25;95289.09;4996031;28;20034;-71
2021/08/04 06:31:19;;;;;;;16.90;12.35;;;;;;;15.39;45.88;95287.53;4998965;28;20860;-71
2021/08/04 06:33:44;;;;;;;21.15;14.77;;;;;;;15.38;45.63;95293.09;4985396;28;20030;-72
2021/08/04 06:36:10;;;;;;;18.27;14.30;;;;;;;15.39;45.77;95295.56;4971834;28;20392;-72
2021/08/04 06:38:35;;;;;;;18.02;14.23;;;;;;;15.36;45.95;95298.69;4980847;28;20030;-73
2021/08/04 06:41:00;;;;;;;15.90;12.85;;;;;;;15.32;46.00;95298.28;4995101;28;20037;-71
2021/08/04 06:43:26;;;;;;;18.30;13.35;;;;;;;15.20;46.60;95298.16;4996537;28;20465;-71
2021/08/04 06:45:51;;;;;;;15.35;12.60;;;;;;;15.24;45.57;95299.38;4993491;28;20030;-72
2021/08/04 06:48:17;;;;;;;15.75;13.35;;;;;;;15.27;45.99;95302.66;4983502;28;20042;-72
2021/08/04 06:50:42;;;;;;;16.70;13.40;;;;;;;15.10;46.06;95305.88;4967944;28;20054;-71
2021/08/04 06:53:08;;;;;;;18.30;14.52;;;;;;;14.89;47.01;95310.47;4985906;28;20074;-72
2021/08/04 06:55:33;;;;;;;17.52;14.43;;;;;;;14.58;47.65;95312.00;4985910;28;20092;-72
2021/08/04 06:57:59;;;;;;;17.23;13.27;;;;;;;14.83;47.16;95308.66;4983686;28;20081;-71
2021/08/04 07:00:24;;;;;;;16.20;11.80;;;;;;;13.99;48.89;95309.25;4985196;28;20034;-71
2021/08/04 07:02:49;;;;;;;15.75;12.32;;;;;;;14.83;47.87;95306.00;4983928;28;20034;-72
2021/08/04 07:05:18;;;;;;;17.10;12.90;;;;;;;15.25;46.30;95305.56;4988116;28;20042;-71
2021/08/04 07:07:44;;;;;;;15.02;11.88;;;;;;;15.11;46.55;95299.47;4984286;28;20042;-72
2021/08/04 07:10:10;;;;;;;14.15;11.90;;;;;;;14.31;48.35;95299.53;4972366;28;20412;-71
2021/08/04 07:12:36;;;;;;;16.92;12.93;;;;;;;14.13;48.55;95297.50;4993248;28;20076;-72
2021/08/04 07:15:01;;;;;;;14.60;12.80;;;;;;;14.14;49.03;95293.78;4986862;28;20033;-72
2021/08/04 07:17:27;;;;;;;16.65;13.23;;;;;;;14.80;47.45;95298.38;4972321;28;20035;-72
2021/08/04 07:19:52;;;;;;;15.15;12.30;;;;;;;15.27;46.64;95299.97;4987419;28;20037;-71
2021/08/04 07:22:18;;;;;;;14.27;11.25;;;;;;;15.35;46.17;95302.41;5003034;28;20037;-72
2021/08/04 07:24:43;;;;;;;14.57;11.25;;;;;;;15.55;45.12;95304.97;4982577;28;20053;-72
2021/08/04 07:27:08;;;;;;;15.57;11.80;;;;;;;14.37;47.92;95315.78;4986422;28;20031;-71
2021/08/04 07:29:34;;;;;;;15.30;11.38;;;;;;;15.19;46.57;95311.78;4983776;28;20179;-71
2021/08/04 07:31:59;;;;;;;15.50;12.10;;;;;;;15.27;46.18;95310.72;4980346;28;20038;-71
2021/08/04 07:34:25;;;;;;;18.75;11.93;;;;;;;15.34;45.50;95319.53;4978649;28;20050;-71
2021/08/04 07:36:50;;;;;;;15.95;11.95;;;;;;;15.46;46.13;95314.28;4979017;28;20042;-72
2021/08/04 07:39:16;;;;;;;16.17;12.38;;;;;;;15.11;46.45;95315.53;4998011;28;20077;-71
2021/08/04 07:41:42;;;;;;;14.48;11.05;;;;;;;15.08;47.11;95315.97;4977875;28;20500;-71
2021/08/04 07:44:07;;;;;;;17.35;13.93;;;;;;;15.24;46.66;95312.78;4976083;28;20530;-71
2021/08/04 07:46:33;;;;;;;16.85;13.20;;;;;;;15.24;46.65;95309.28;4979615;28;20105;-71
2021/08/04 07:48:58;;;;;;;18.00;15.48;;;;;;;15.12;47.10;95317.19;4987188;28;20045;-72
2021/08/04 07:51:24;;;;;;;19.67;15.80;;;;;;;15.08;46.68;95324.00;4982484;28;20045;-71
2021/08/04 07:53:49;;;;;;;18.33;14.18;;;;;;;14.81;48.19;95318.75;4941684;28;20030;-71
2021/08/04 07:56:19;;;;;;;23.25;17.38;;;;;;;15.04;46.75;95314.75;4981824;28;20073;-71
2021/08/04 07:58:46;;;;;;;24.08;18.92;;;;;;;13.75;49.48;95323.03;4984814;28;20364;-71
2021/08/04 08:01:11;;;;;;;26.45;19.48;;;;;;;14.28;48.44;95326.72;4978741;28;20109;-72
2021/08/04 08:03:37;;;;;;;25.13;18.80;;;;;;;14.29;48.48;95324.88;4984590;28;20046;-71
2021/08/04 08:06:02;;;;;;;24.75;17.92;;;;;;;14.33;48.46;95326.09;4983778;28;20038;-71
2021/08/04 08:08:28;;;;;;;24.05;18.33;;;;;;;14.39;48.42;95322.59;4984465;28;20110;-71
2021/08/04 08:10:54;;;;;;;24.88;18.23;;;;;;;14.36;48.45;95325.69;4981154;28;20123;-72
2021/08/04 08:13:20;;;;;;;25.13;18.20;;;;;;;13.85;49.77;95322.63;4987260;28;20111;-72
2021/08/04 08:15:46;;;;;;;26.88;18.88;;;;;;;13.53;50.34;95325.06;4991133;28;20111;-72
2021/08/04 08:18:12;;;;;;;25.13;17.58;;;;;;;14.15;48.90;95322.22;4978984;28;20864;-72
2021/08/04 08:20:38;;;;;;;22.45;16.13;;;;;;;14.20;48.45;95321.56;4992019;28;20114;-72
2021/08/04 08:23:03;;;;;;;23.75;18.05;;;;;;;14.17;49.01;95322.81;4997560;28;20078;-72
2021/08/04 08:25:29;;;;;;;23.02;16.40;;;;;;;14.01;49.57;95326.75;4978502;28;20137;-73
2021/08/04 08:27:54;;;;;;;22.13;16.33;;;;;;;13.85;49.55;95333.31;4983221;28;20602;-72
2021/08/04 08:30:20;;;;;;;22.08;17.17;;;;;;;14.14;49.68;95325.91;4999102;28;20082;-73
2021/08/04 08:32:48;;;;;;;22.35;15.43;;;;;;;14.34;47.59;95333.91;4982774;28;20111;-72
2021/08/04 08:35:14;;;;;;;22.80;16.30;;;;;;;14.44;48.06;95327.28;4979410;28;20994;-72
2021/08/04 08:37:39;;;;;;;19.65;14.13;;;;;;;14.50;47.74;95321.09;5007991;28;20087;-72
2021/08/04 08:40:05;;;;;;;18.05;14.20;;;;;;;14.59;47.41;95329.75;4981955;28;20107;-73
2021/08/04 08:42:31;;;;;;;21.65;15.52;;;;;;;14.78;46.92;95324.53;4968644;28;20083;-73
2021/08/04 08:44:58;;;;;;;22.27;15.23;;;;;;;14.74;47.81;95328.69;4981186;28;20583;-73
2021/08/04 08:47:23;;;;;;;21.98;15.32;;;;;;;14.58;47.86;95328.06;4982917;28;20122;-72
2021/08/04 08:49:48;;;;;;;20.65;15.45;;;;;;;14.60;47.89;95326.03;4982246;28;20086;-73
2021/08/04 08:52:14;;;;;;;20.13;15.10;;;;;;;14.65;47.71;95328.09;4984798;28;20279;-73
2021/08/04 08:54:39;;;;;;;19.88;14.23;;;;;;;14.89;46.95;95329.25;4982791;28;20467;-72
2021/08/04 08:57:05;;;;;;;17.52;13.57;;;;;;;14.90;46.94;95328.22;4979737;28;20041;-72
2021/08/04 08:59:30;;;;;;;20.38;14.93;;;;;;;14.98;46.92;95329.81;5015294;28;20042;-71
2021/08/04 09:01:56;;;;;;;16.92;12.57;;;;;;;15.05;46.30;95321.75;4982993;28;20038;-72
2021/08/04 09:04:21;;;;;;;17.02;11.82;;;;;;;15.27;45.98;95324.13;4949264;28;20049;-72
2021/08/04 09:06:51;;;;;;;18.25;11.98;;;;;;;15.40;45.47;95325.91;4981508;28;20038;-72
2021/08/04 09:09:26;;;;;;;16.95;12.40;;;;;;;15.49;45.88;95327.28;4978110;28;20045;-72
2021/08/04 09:12:09;;;;;;;15.40;11.20;;;;;;;15.26;45.64;95317.13;4989919;28;20415;-72
2021/08/04 09:14:35;;;;;;;13.98;10.10;;;;;;;15.78;44.45;95316.16;4993946;28;20137;-71
2021/08/04 09:17:08;;;;;;;13.75;10.27;;;;;;;16.02;44.29;95313.69;4985639;28;20034;-72
2021/08/04 09:19:41;;;;;;;16.45;11.32;;;;;;;16.06;43.78;95322.94;4981222;28;20041;-72
2021/08/04 09:22:16;;;;;;;12.05;9.68;;;;;;;16.21;43.75;95320.75;4986937;28;20116;-72
2021/08/04 09:25:01;;;;;;;11.88;9.85;;;;;;;16.49;43.23;95327.50;5000885;28;20502;-72
2021/08/04 09:27:49;;;;;;;13.73;9.88;;;;;;;16.57;42.17;95325.59;5001020;28;20041;-73
2021/08/04 09:30:27;;;;;;;9.77;7.53;;;;;;;16.71;42.27;95324.41;4998842;28;20092;-73
2021/08/04 09:32:53;;;;;;;14.00;9.98;;;;;;;16.24;42.98;95327.53;5001979;28;20100;-72
2021/08/04 09:35:20;;;;;;;11.20;8.80;;;;;;;15.69;45.21;95324.50;5000900;28;20395;-72
2021/08/04 09:37:47;;;;;;;10.48;7.53;;;;;;;16.43;42.75;95319.53;4985550;28;20021;-71
2021/08/04 09:40:19;;;;;;;9.30;7.33;;;;;;;16.99;41.92;95314.13;4977203;28;20110;-73
2021/08/04 09:42:49;;;;;;;10.45;8.65;;;;;;;17.01;41.79;95312.03;5035850;28;20093;-72
2021/08/04 09:45:37;;;;;;;12.73;9.32;;;;;;;16.94;41.83;95312.13;5001389;28;20045;-72
2021/08/04 09:48:02;;;;;;;10.07;6.85;;;;;;;17.54;40.56;95310.50;5000721;28;20048;-72
2021/08/04 09:50:42;;;;;;;10.10;7.55;;;;;;;18.16;39.57;95307.69;5002574;28;20511;-73
2021/08/04 09:53:08;;;;;;;9.55;8.00;;;;;;;17.96;39.18;95305.34;4997977;28;20325;-73
2021/08/04 09:55:33;;;;;;;8.55;6.70;;;;;;;18.46;39.53;95301.31;5003584;28;20423;-73
2021/08/04 09:57:59;;;;;;;7.10;5.80;;;;;;;19.66;35.46;95298.25;4985646;28;20023;-73
2021/08/04 10:00:24;;;;;;;7.80;6.20;;;;;;;19.51;35.82;95304.22;4999398;28;20369;-73
2021/08/04 10:02:50;;;;;;;8.43;5.35;;;;;;;19.75;35.78;95304.88;5031511;28;20030;-74
2021/08/04 10:05:24;;;;;;;6.55;5.30;;;;;;;18.54;38.04;95301.00;4998245;28;20034;-73
2021/08/04 10:08:02;;;;;;;7.68;5.82;;;;;;;19.20;37.90;95296.34;4995845;28;20407;-72
2021/08/04 10:10:29;;;;;;;9.10;6.80;;;;;;;19.17;37.41;95294.16;4993743;28;20049;-73
2021/08/04 10:12:54;;;;;;;9.98;7.72;;;;;;;18.24;39.32;95301.13;5034162;28;20406;-74
2021/08/04 10:15:20;;;;;;;9.60;8.15;;;;;;;18.53;37.95;95295.84;4996810;28;20036;-73
2021/08/04 10:17:45;;;;;;;10.77;9.00;;;;;;;17.31;40.28;95303.19;4990752;28;20317;-73
2021/08/04 10:20:11;;;;;;;10.13;7.70;;;;;;;18.39;38.74;95296.06;4979173;28;20052;-73
2021/08/04 10:22:36;;;;;;;10.35;6.78;;;;;;;18.94;37.21;95293.19;4974866;28;20266;-74
2021/08/04 10:25:02;;;;;;;10.23;8.05;;;;;;;18.38;38.41;95296.31;5016345;28;20046;-74
2021/08/04 10:27:28;;;;;;;10.87;8.07;;;;;;;19.55;36.58;95298.09;4988617;28;20050;-72
2021/08/04 10:29:54;;;;;;;9.10;7.80;;;;;;;17.71;40.26;95293.69;4996651;28;20529;-74
2021/08/04 10:32:19;;;;;;;8.90;7.95;;;;;;;16.79;41.49;95295.56;4986218;28;20080;-73
2021/08/04 10:34:45;;;;;;;8.25;6.93;;;;;;;18.21;39.73;95288.94;4994838;28;20254;-74
2021/08/04 10:37:11;;;;;;;9.55;6.88;;;;;;;20.00;35.65;95284.81;4989233;28;20034;-74
2021/08/04 10:39:36;;;;;;;8.35;6.68;;;;;;;20.12;34.87;95278.50;5011487;28;20491;-73
2021/08/04 10:42:06;;;;;;;8.43;6.75;;;;;;;20.72;34.51;95278.75;4998004;28;20037;-74
2021/08/04 10:44:32;;;;;;;7.47;6.65;;;;;;;20.57;34.24;95282.88;4999740;28;20041;-73
2021/08/04 10:46:59;;;;;;;11.27;7.22;;;;;;;21.33;32.95;95277.84;4996922;28;20483;-73
2021/08/04 10:49:26;;;;;;;7.07;5.60;;;;;;;21.32;32.99;95275.38;5000117;28;20033;-72
2021/08/04 10:51:54;;;;;;;6.88;5.57;;;;;;;21.16;33.15;95277.09;4997114;28;20048;-73
2021/08/04 10:54:20;;;;;;;7.05;5.88;;;;;;;20.54;33.57;95279.88;5000492;28;20490;-73
2021/08/04 10:56:48;;;;;;;7.00;5.82;;;;;;;21.49;32.79;95278.78;4995184;28;20033;-73
2021/08/04 10:59:13;;;;;;;6.00;5.30;;;;;;;21.71;30.76;95271.66;4987736;28;20057;-72
2021/08/04 11:01:39;;;;;;;6.53;5.37;;;;;;;22.60;29.78;95271.22;4995084;28;20076;-73
2021/08/04 11:04:05;;;;;;;5.90;5.10;;;;;;;22.30;30.51;95275.38;4996092;28;20799;-72
2021/08/04 11:06:31;;;;;;;5.68;4.95;;;;;;;21.65;32.20;95287.06;4997323;28;20034;-71
2021/08/04 11:09:32;;;;;;;8.40;6.63;;;;;;;22.09;30.63;95280.66;4977705;28;20040;-72
2021/08/04 11:12:00;;;;;;;6.03;5.18;;;;;;;22.55;31.43;95282.03;4983570;28;20050;-72
2021/08/04 11:14:54;;;;;;;6.68;4.95;;;;;;;23.15;29.54;95279.03;4975855;28;20610;-73
2021/08/04 11:17:44;;;;;;;5.57;4.53;;;;;;;23.28;29.36;95274.16;4980316;28;20411;-72
2021/08/04 11:20:10;;;;;;;6.70;5.93;;;;;;;23.26;29.10;95268.19;4982503;28;20039;-73
2021/08/04 11:22:39;;;;;;;5.70;4.93;;;;;;;23.22;28.81;95276.06;4981974;28;20534;-72
2021/08/04 11:25:11;;;;;;;5.90;5.30;;;;;;;23.26;29.39;95270.91;4981234;28;20384;-72